createdAt,value
2022-10-03T00:02:46.522Z,94987.28
2022-10-03T00:05:36.155Z,94985.72
2022-10-03T00:08:24.456Z,94988.34
2022-10-03T00:11:17.806Z,94992.53
2022-10-03T00:13:53.321Z,94998.25
2022-10-03T00:16:36.661Z,94986.31
2022-10-03T00:19:28.523Z,94993.34
2022-10-03T00:22:22.050Z,95000.09
2022-10-03T00:25:15.873Z,94992.56
2022-10-03T00:27:53.719Z,94998.78
2022-10-03T00:30:22.891Z,94997.50
2022-10-03T00:33:03.160Z,94998.28
2022-10-03T00:35:35.536Z,94996.72
2022-10-03T00:38:35.861Z,94995.69
2022-10-03T00:41:27.858Z,95002.19
2022-10-03T00:44:33.025Z,95003.53
2022-10-03T00:47:11.619Z,95008.97
2022-10-03T00:50:07.664Z,95014.69
2022-10-03T00:52:58.518Z,95011.59
2022-10-03T00:55:52.838Z,95019.38
2022-10-03T00:58:25.863Z,95017.06
2022-10-03T01:00:57.913Z,95013.69
2022-10-03T01:03:39.092Z,95011.09
2022-10-03T01:06:27.244Z,95012.41
2022-10-03T01:09:12.018Z,95028.78
2022-10-03T01:11:49.639Z,95027.50
2022-10-03T01:14:16.531Z,95033.19
2022-10-03T01:16:46.298Z,95035.00
2022-10-03T01:19:38.651Z,95041.00
2022-10-03T01:22:36.309Z,95049.31
2022-10-03T01:25:47.883Z,95043.06
2022-10-03T01:29:00.110Z,95041.75
2022-10-03T01:31:51.252Z,95039.16
2022-10-03T01:34:51.276Z,95037.81
2022-10-03T01:37:23.779Z,95040.16
2022-10-03T01:40:16.231Z,95037.34
2022-10-03T01:43:02.847Z,95034.19
2022-10-03T01:45:52.650Z,95036.75
2022-10-03T01:48:43.718Z,95034.41
2022-10-03T01:51:41.525Z,95032.56
2022-10-03T01:54:33.173Z,95037.75
2022-10-03T01:57:02.798Z,95041.66
2022-10-03T01:59:57.011Z,95036.69
2022-10-03T02:02:36.152Z,95035.41
2022-10-03T02:05:40.381Z,95038.75
2022-10-03T02:08:28.160Z,95048.63
2022-10-03T02:11:04.287Z,95053.06
2022-10-03T02:13:47.833Z,95053.31
2022-10-03T02:16:17.607Z,95051.75
2022-10-03T02:19:03.197Z,95053.56
2022-10-03T02:21:34.249Z,95058.81
2022-10-03T02:24:32.439Z,95069.25
2022-10-03T02:27:01.785Z,95066.38
2022-10-03T02:29:52.615Z,95068.50
2022-10-03T02:32:51.910Z,95065.09
2022-10-03T02:35:37.145Z,95071.59
2022-10-03T02:39:12.445Z,95065.88
2022-10-03T02:41:44.446Z,95073.16
2022-10-03T02:44:42.773Z,95072.63
2022-10-03T02:47:27.618Z,95088.22
2022-10-03T02:49:53.922Z,95086.13
2022-10-03T02:52:20.282Z,95080.63
2022-10-03T02:55:13.518Z,95082.47
2022-10-03T02:58:33.316Z,95088.19
2022-10-03T03:01:41.791Z,95073.59
2022-10-03T03:04:23.561Z,95078.81
2022-10-03T03:07:05.752Z,95078.81
2022-10-03T03:09:53.013Z,95082.69
2022-10-03T03:12:55.368Z,95082.44
2022-10-03T03:15:46.625Z,95087.13
2022-10-03T03:18:24.636Z,95092.06
2022-10-03T03:21:05.520Z,95097.50
2022-10-03T03:24:02.788Z,95092.81
2022-10-03T03:26:46.893Z,95089.69
2022-10-03T03:29:26.162Z,95092.59
2022-10-03T03:32:31.076Z,95084.50
2022-10-03T03:35:09.907Z,95081.66
2022-10-03T03:37:53.287Z,95088.19
2022-10-03T03:40:35.072Z,95082.47
2022-10-03T03:43:08.627Z,95089.50
2022-10-03T03:45:54.381Z,95081.94
2022-10-03T03:48:42.200Z,95084.03
2022-10-03T03:51:22.707Z,95078.03
2022-10-03T03:54:10.950Z,95075.72
2022-10-03T03:57:09.181Z,95070.50
2022-10-03T03:59:57.185Z,95068.16
2022-10-03T04:02:34.299Z,95069.47
2022-10-03T04:05:15.901Z,95067.91
2022-10-03T04:08:02.455Z,95077.53
2022-10-03T04:10:53.749Z,95074.41
2022-10-03T04:13:47.678Z,95066.63
2022-10-03T04:16:45.406Z,95077.81
2022-10-03T04:19:24.592Z,95089.50
2022-10-03T04:22:18.062Z,95081.94
2022-10-03T04:25:16.255Z,95085.06
2022-10-03T04:28:26.584Z,95082.19
2022-10-03T04:31:16.855Z,95090.50
2022-10-03T04:34:12.442Z,95086.59
2022-10-03T04:36:59.833Z,95080.09
2022-10-03T04:39:28.945Z,95086.38
2022-10-03T04:41:58.724Z,95080.13
2022-10-03T04:44:40.376Z,95087.16
2022-10-03T04:47:34.155Z,95087.69
2022-10-03T04:50:03.224Z,95085.59
2022-10-03T04:53:06.133Z,95090.81
2022-10-03T04:55:49.947Z,95087.41
2022-10-03T04:58:39.059Z,95091.59
2022-10-03T05:01:17.736Z,95078.28
2022-10-03T05:04:05.870Z,95090.50
2022-10-03T05:07:19.898Z,95087.13
2022-10-03T05:09:52.954Z,95088.66
2022-10-03T05:12:31.185Z,95103.00
2022-10-03T05:15:16.673Z,95097.00
2022-10-03T05:17:55.933Z,95107.16
2022-10-03T05:20:44.597Z,95109.50
2022-10-03T05:23:50.189Z,95106.38
2022-10-03T05:26:46.307Z,95111.06
2022-10-03T05:29:41.819Z,95119.41
2022-10-03T05:32:23.109Z,95116.81
2022-10-03T05:35:27.181Z,95116.81
2022-10-03T05:38:15.498Z,95121.53
2022-10-03T05:41:03.149Z,95120.72
2022-10-03T05:44:07.086Z,95130.38
2022-10-03T05:46:51.977Z,95118.41
2022-10-03T05:49:23.640Z,95119.44
2022-10-03T05:52:12.449Z,95130.91
2022-10-03T05:54:41.931Z,95134.03
2022-10-03T05:57:27.061Z,95135.88
2022-10-03T06:00:02.531Z,95134.03
2022-10-03T06:03:09.103Z,95150.72
2022-10-03T06:05:53.696Z,95148.59
2022-10-03T06:08:25.914Z,95141.31
2022-10-03T06:11:20.389Z,95138.94
2022-10-03T06:14:18.068Z,95144.94
2022-10-03T06:17:04.375Z,95154.28
2022-10-03T06:19:56.642Z,95152.44
2022-10-03T06:22:50.674Z,95159.47
2022-10-03T06:25:26.332Z,95152.44
2022-10-03T06:28:14.991Z,95160.00
2022-10-03T06:30:56.676Z,95158.91
2022-10-03T06:33:53.524Z,95176.34
2022-10-03T06:36:32.535Z,95167.19
2022-10-03T06:39:36.462Z,95170.53
2022-10-03T06:42:21.825Z,95169.97
2022-10-03T06:45:06.421Z,95176.75
2022-10-03T06:48:00.654Z,95167.03
2022-10-03T06:50:36.097Z,95176.63
2022-10-03T06:53:28.432Z,95167.53
2022-10-03T06:56:05.747Z,95182.34
2022-10-03T06:58:56.994Z,95178.72
2022-10-03T07:01:57.400Z,95173.47
2022-10-03T07:04:43.878Z,95180.53
2022-10-03T07:07:38.833Z,95190.97
2022-10-03T07:10:30.046Z,95185.78
2022-10-03T07:13:21.383Z,95193.06
2022-10-03T07:16:28.558Z,95195.16
2022-10-03T07:19:13.534Z,95194.94
2022-10-03T07:22:10.407Z,95198.84
2022-10-03T07:24:52.159Z,95206.66
2022-10-03T07:27:46.317Z,95209.03
2022-10-03T07:30:21.737Z,95213.44
2022-10-03T07:33:06.374Z,95215.28
2022-10-03T07:36:08.223Z,95220.25
2022-10-03T07:39:00.645Z,95221.25
2022-10-03T07:41:52.286Z,95222.53
2022-10-03T07:44:47.980Z,95222.03
2022-10-03T07:47:35.925Z,95224.91
2022-10-03T07:50:50.308Z,95227.72
2022-10-03T07:53:25.634Z,95222.69
2022-10-03T07:56:16.123Z,95224.72
2022-10-03T07:58:43.011Z,95226.25
2022-10-03T08:01:31.210Z,95219.66
2022-10-03T08:04:25.933Z,95225.88
2022-10-03T08:07:26.638Z,95230.34
2022-10-03T08:10:13.064Z,95242.13
2022-10-03T08:12:56.365Z,95232.97
2022-10-03T08:15:43.087Z,95231.97
2022-10-03T08:18:34.422Z,95229.63
2022-10-03T08:21:03.069Z,95237.25
2022-10-03T08:23:47.972Z,95239.34
2022-10-03T08:26:32.173Z,95227.81
2022-10-03T08:29:04.466Z,95232.00
2022-10-03T08:31:48.739Z,95237.47
2022-10-03T08:34:40.120Z,95239.56
2022-10-03T08:37:38.803Z,95241.34
2022-10-03T08:40:42.049Z,95236.56
2022-10-03T08:43:33.298Z,95237.34
2022-10-03T08:46:12.673Z,95233.16
2022-10-03T08:49:04.105Z,95233.16
2022-10-03T08:51:53.545Z,95229.72
2022-10-03T08:55:02.346Z,95230.69
2022-10-03T08:57:58.970Z,95236.09
2022-10-03T09:00:41.434Z,95233.22
2022-10-03T09:03:43.184Z,95224.34
2022-10-03T09:06:33.041Z,95230.31
2022-10-03T09:09:24.171Z,95221.75
2022-10-03T09:12:18.284Z,95229.09
2022-10-03T09:15:22.556Z,95219.00
2022-10-03T09:18:13.985Z,95219.72
2022-10-03T09:21:13.078Z,95221.75
2022-10-03T09:24:14.587Z,95225.06
2022-10-03T09:27:13.436Z,95231.81
2022-10-03T09:29:51.687Z,95223.09
2022-10-03T09:32:30.176Z,95235.56
2022-10-03T09:35:25.567Z,95229.75
2022-10-03T09:38:02.816Z,95229.31
2022-10-03T09:40:56.345Z,95233.69
2022-10-03T09:43:48.145Z,95224.66
2022-10-03T09:46:36.656Z,95228.38
2022-10-03T09:49:48.145Z,95231.94
2022-10-03T09:52:50.818Z,95232.25
2022-10-03T09:55:49.497Z,95225.00
2022-10-03T09:58:37.510Z,95228.16
2022-10-03T10:01:09.884Z,95234.03
2022-10-03T10:04:10.408Z,95221.41
2022-10-03T10:06:42.908Z,95227.41
2022-10-03T10:09:40.229Z,95216.75
2022-10-03T10:12:27.410Z,95224.53
2022-10-03T10:15:13.599Z,95213.13
2022-10-03T10:18:04.669Z,95209.50
2022-10-03T10:21:03.056Z,95209.19
2022-10-03T10:23:55.621Z,95216.78
2022-10-03T10:26:45.009Z,95220.78
2022-10-03T10:29:44.417Z,95213.00
2022-10-03T10:32:55.999Z,95221.84
2022-10-03T10:35:40.344Z,95226.59
2022-10-03T10:38:28.509Z,95222.94
2022-10-03T10:40:59.898Z,95224.56
2022-10-03T10:43:51.228Z,95222.63
2022-10-03T10:46:45.693Z,95218.44
2022-10-03T10:49:40.349Z,95223.81
2022-10-03T10:52:48.643Z,95224.28
2022-10-03T10:55:59.789Z,95226.34
2022-10-03T10:58:59.761Z,95231.09
2022-10-03T11:02:03.640Z,95230.88
2022-10-03T11:05:07.364Z,95227.34
2022-10-03T11:08:08.549Z,95234.25
2022-10-03T11:11:13.868Z,95238.19
2022-10-03T11:14:11.109Z,95233.16
2022-10-03T11:17:15.750Z,95244.00
2022-10-03T11:20:04.081Z,95235.63
2022-10-03T11:22:39.444Z,95241.44
2022-10-03T11:25:50.205Z,95242.41
2022-10-03T11:28:46.485Z,95239.22
2022-10-03T11:31:44.197Z,95234.34
2022-10-03T11:34:32.319Z,95237.06
2022-10-03T11:37:07.630Z,95236.63
2022-10-03T11:39:42.826Z,95224.00
2022-10-03T11:42:24.635Z,95223.91
2022-10-03T11:45:06.601Z,95214.91
2022-10-03T11:47:32.903Z,95222.84
2022-10-03T11:50:39.020Z,95223.81
2022-10-03T11:53:18.588Z,95207.69
2022-10-03T11:55:57.910Z,95215.88
2022-10-03T11:58:41.390Z,95218.00
2022-10-03T12:01:16.626Z,95219.56
2022-10-03T12:04:01.720Z,95218.16
2022-10-03T12:07:17.353Z,95215.09
2022-10-03T12:09:59.135Z,95214.81
2022-10-03T12:12:43.233Z,95215.06
2022-10-03T12:15:26.529Z,95209.13
2022-10-03T12:18:14.937Z,95216.03
2022-10-03T12:21:05.180Z,95214.50
2022-10-03T12:24:03.966Z,95206.88
2022-10-03T12:26:45.338Z,95207.09
2022-10-03T12:29:13.222Z,95207.13
2022-10-03T12:32:00.281Z,95207.94
2022-10-03T12:34:51.388Z,95209.50
2022-10-03T12:37:43.326Z,95202.50
2022-10-03T12:40:12.529Z,95201.25
2022-10-03T12:43:02.722Z,95202.97
2022-10-03T12:46:00.292Z,95196.44
2022-10-03T12:48:47.888Z,95199.09
2022-10-03T12:51:32.656Z,95192.28
2022-10-03T12:54:17.150Z,95197.72
2022-10-03T12:56:50.446Z,95190.94
2022-10-03T12:59:35.508Z,95193.16
2022-10-03T13:02:35.315Z,95187.91
2022-10-03T13:05:37.454Z,95178.66
2022-10-03T13:08:28.084Z,95185.22
2022-10-03T13:11:07.006Z,95187.78
2022-10-03T13:13:51.204Z,95193.94
2022-10-03T13:16:50.353Z,95190.97
2022-10-03T13:19:22.268Z,95173.84
2022-10-03T13:22:28.072Z,95166.13
2022-10-03T13:25:18.816Z,95165.47
2022-10-03T13:28:00.536Z,95157.66
2022-10-03T13:30:32.530Z,95159.56
2022-10-03T13:33:14.124Z,95168.09
2022-10-03T13:36:02.689Z,95169.00
2022-10-03T13:39:07.877Z,95172.13
2022-10-03T13:41:59.849Z,95171.47
2022-10-03T13:44:40.638Z,95173.44
2022-10-03T13:47:35.005Z,95163.94
2022-10-03T13:50:09.123Z,95170.91
2022-10-03T13:52:44.876Z,95163.00
2022-10-03T13:55:19.430Z,95164.81
2022-10-03T13:58:05.700Z,95163.69
2022-10-03T14:00:53.581Z,95164.06
2022-10-03T14:03:30.896Z,95162.44
2022-10-03T14:06:12.298Z,95165.03
2022-10-03T14:09:09.467Z,95155.97
2022-10-03T14:11:49.158Z,95147.84
2022-10-03T14:14:23.893Z,95160.66
2022-10-03T14:17:04.815Z,95159.59
2022-10-03T14:19:32.474Z,95157.69
2022-10-03T14:22:35.617Z,95157.38
2022-10-03T14:25:19.385Z,95153.69
2022-10-03T14:27:54.213Z,95151.06
2022-10-03T14:31:05.029Z,95157.56
2022-10-03T14:33:43.495Z,95146.84
2022-10-03T14:36:33.022Z,95149.78
2022-10-03T14:39:11.568Z,95146.31
2022-10-03T14:41:52.070Z,95154.41
2022-10-03T14:44:21.658Z,95150.06
2022-10-03T14:47:00.620Z,95140.00
2022-10-03T14:52:43.562Z,95144.66
2022-10-03T14:55:14.560Z,95142.69
2022-10-03T14:58:05.998Z,95140.81
2022-10-03T15:00:39.137Z,95137.56
2022-10-03T15:03:17.579Z,95141.22
2022-10-03T15:06:01.833Z,95143.22
2022-10-03T15:08:40.121Z,95143.91
2022-10-03T15:11:08.834Z,95130.41
2022-10-03T15:13:40.872Z,95127.38
2022-10-03T15:16:09.472Z,95123.50
2022-10-03T15:18:37.897Z,95113.66
2022-10-03T15:21:05.740Z,95121.91
2022-10-03T15:23:41.088Z,95115.88
2022-10-03T15:26:15.047Z,95107.13
2022-10-03T15:28:46.792Z,95119.19
2022-10-03T15:31:43.210Z,95120.00
2022-10-03T15:34:19.241Z,95119.88
2022-10-03T15:36:49.876Z,95120.44
2022-10-03T15:39:30.512Z,95120.44
2022-10-03T15:42:09.105Z,95127.69
2022-10-03T15:44:50.222Z,95133.00
2022-10-03T15:47:31.484Z,95127.44
2022-10-03T15:50:17.420Z,95119.41
2022-10-03T15:52:49.086Z,95125.66
2022-10-03T15:55:25.241Z,95124.69
2022-10-03T15:58:02.074Z,95126.00
2022-10-03T16:00:31.261Z,95130.41
2022-10-03T16:03:12.969Z,95137.91
2022-10-03T16:06:02.022Z,95127.00
2022-10-03T16:08:32.121Z,95131.19
2022-10-03T16:11:04.690Z,95128.66
2022-10-03T16:13:42.076Z,95124.50
2022-10-03T16:16:22.160Z,95116.59
2022-10-03T16:19:02.599Z,95118.91
2022-10-03T16:22:05.486Z,95117.03
2022-10-03T16:25:01.070Z,95108.16
2022-10-03T16:27:31.015Z,95118.06
2022-10-03T16:30:09.310Z,95123.69
2022-10-03T16:33:00.533Z,95121.00
2022-10-03T16:35:37.210Z,95120.16
2022-10-03T16:38:13.888Z,95123.13
2022-10-03T16:40:40.811Z,95119.78
2022-10-03T16:43:09.770Z,95124.91
2022-10-03T16:45:46.212Z,95121.84
2022-10-03T16:48:53.050Z,95120.09
2022-10-03T16:51:35.970Z,95129.38
2022-10-03T16:54:03.841Z,95130.19
2022-10-03T16:56:36.531Z,95139.72
2022-10-03T16:59:12.297Z,95135.84
2022-10-03T17:01:56.143Z,95137.28
2022-10-03T17:04:24.564Z,95139.09
2022-10-03T17:06:55.442Z,95128.84
2022-10-03T17:09:30.846Z,95136.50
2022-10-03T17:11:59.249Z,95130.75
2022-10-03T17:14:35.500Z,95129.69
2022-10-03T17:17:07.152Z,95134.31
2022-10-03T17:19:42.503Z,95139.16
2022-10-03T17:22:21.315Z,95134.88
2022-10-03T17:25:03.296Z,95131.09
2022-10-03T17:27:36.804Z,95126.81
2022-10-03T17:30:14.125Z,95133.97
2022-10-03T17:32:44.032Z,95136.13
2022-10-03T17:35:15.441Z,95138.53
2022-10-03T17:37:50.689Z,95142.03
2022-10-03T17:41:00.429Z,95137.97
2022-10-03T17:43:42.261Z,95140.91
2022-10-03T17:46:20.557Z,95138.63
2022-10-03T17:49:17.525Z,95129.28
2022-10-03T17:51:47.401Z,95131.41
2022-10-03T17:54:18.990Z,95127.00
2022-10-03T17:57:01.969Z,95129.91
2022-10-03T17:59:33.633Z,95140.91
2022-10-03T18:02:18.506Z,95133.66
2022-10-03T18:04:53.103Z,95131.63
2022-10-03T18:07:23.968Z,95124.09
2022-10-03T18:09:53.042Z,95130.38
2022-10-03T18:12:27.888Z,95132.25
2022-10-03T18:15:16.168Z,95124.75
2022-10-03T18:18:07.660Z,95129.16
2022-10-03T18:20:41.775Z,95133.13
2022-10-03T18:23:27.062Z,95119.91
2022-10-03T18:26:22.628Z,95132.44
2022-10-03T18:29:16.092Z,95133.25
2022-10-03T18:31:50.067Z,95137.16
2022-10-03T18:34:21.116Z,95133.00
2022-10-03T18:36:52.709Z,95133.03
2022-10-03T18:39:25.254Z,95125.47
2022-10-03T18:42:00.297Z,95129.91
2022-10-03T18:44:30.454Z,95122.88
2022-10-03T18:47:17.688Z,95129.13
2022-10-03T18:49:55.962Z,95126.78
2022-10-03T18:52:27.760Z,95124.72
2022-10-03T18:55:21.172Z,95127.34
2022-10-03T18:58:00.126Z,95127.38
2022-10-03T19:00:30.022Z,95123.47
2022-10-03T19:03:08.316Z,95118.50
2022-10-03T19:06:29.589Z,95122.69
2022-10-03T19:09:22.204Z,95125.53
2022-10-03T19:11:59.936Z,95126.06
2022-10-03T19:14:33.684Z,95129.69
2022-10-03T19:17:21.942Z,95116.41
2022-10-03T19:19:59.422Z,95119.03
2022-10-03T19:22:32.898Z,95109.91
2022-10-03T19:25:05.166Z,95110.19
2022-10-03T19:27:59.679Z,95116.69
2022-10-03T19:30:28.940Z,95118.50
2022-10-03T19:33:02.228Z,95116.94
2022-10-03T19:35:30.636Z,95126.31
2022-10-03T19:38:06.076Z,95121.88
2022-10-03T19:40:52.279Z,95123.16
2022-10-03T19:43:21.477Z,95121.63
2022-10-03T19:46:22.454Z,95121.63
2022-10-03T19:49:00.790Z,95122.91
2022-10-03T19:51:28.061Z,95122.91
2022-10-03T19:53:59.722Z,95113.25
2022-10-03T19:56:31.431Z,95119.25
2022-10-03T19:59:05.823Z,95114.06
2022-10-03T20:01:46.979Z,95113.28
2022-10-03T20:04:16.784Z,95113.81
2022-10-03T20:06:48.301Z,95121.34
2022-10-03T20:09:28.743Z,95121.84
2022-10-03T20:12:09.894Z,95125.72
2022-10-03T20:14:40.560Z,95121.03
2022-10-03T20:17:19.532Z,95116.63
2022-10-03T20:20:06.239Z,95122.56
2022-10-03T20:22:36.676Z,95125.69
2022-10-03T20:25:08.146Z,95114.78
2022-10-03T20:27:40.080Z,95105.88
2022-10-03T20:30:45.143Z,95113.19
2022-10-03T20:33:33.421Z,95117.88
2022-10-03T20:36:22.190Z,95117.06
2022-10-03T20:39:11.414Z,95115.19
2022-10-03T20:41:59.487Z,95116.25
2022-10-03T20:44:28.203Z,95111.56
2022-10-03T20:47:06.450Z,95111.78
2022-10-03T20:49:42.813Z,95114.66
2022-10-03T20:52:17.796Z,95111.50
2022-10-03T20:54:52.686Z,95109.94
2022-10-03T20:57:25.730Z,95105.00
2022-10-03T21:00:17.207Z,95106.28
2022-10-03T21:02:50.372Z,95102.66
2022-10-03T21:05:40.698Z,95095.63
2022-10-03T21:08:21.172Z,95094.59
2022-10-03T21:10:54.648Z,95102.66
2022-10-03T21:13:43.957Z,95092.50
2022-10-03T21:16:23.006Z,95090.91
2022-10-03T21:18:52.133Z,95094.84
2022-10-03T21:21:28.038Z,95097.44
2022-10-03T21:24:24.058Z,95083.91
2022-10-03T21:27:00.085Z,95074.59
2022-10-03T21:29:32.558Z,95083.41
2022-10-03T21:32:26.563Z,95083.41
2022-10-03T21:35:01.739Z,95084.19
2022-10-03T21:37:35.781Z,95077.16
2022-10-03T21:40:25.727Z,95072.47
2022-10-03T21:43:10.872Z,95074.56
2022-10-03T21:45:46.439Z,95078.16
2022-10-03T21:48:30.522Z,95071.66
2022-10-03T21:51:03.213Z,95065.91
2022-10-03T21:53:54.749Z,95071.06
2022-10-03T21:56:33.198Z,95064.25
2022-10-03T21:59:13.968Z,95073.28
2022-10-03T22:01:52.932Z,95070.66
2022-10-03T22:04:40.977Z,95061.00
2022-10-03T22:07:13.480Z,95063.38
2022-10-03T22:09:53.891Z,95066.47
2022-10-03T22:12:21.464Z,95067.00
2022-10-03T22:15:10.176Z,95057.69
2022-10-03T22:17:53.869Z,95047.06
2022-10-03T22:20:26.127Z,95044.41
2022-10-03T22:23:17.156Z,95052.47
2022-10-03T22:25:53.233Z,95046.19
2022-10-03T22:28:37.045Z,95049.06
2022-10-03T22:31:25.975Z,95042.31
2022-10-03T22:34:17.367Z,95036.31
2022-10-03T22:36:44.597Z,95032.69
2022-10-03T22:39:15.086Z,95030.31
2022-10-03T22:41:45.611Z,95033.69
2022-10-03T22:44:14.395Z,95027.91
2022-10-03T22:46:44.357Z,95031.25
2022-10-03T22:49:22.716Z,95032.25
2022-10-03T22:51:53.247Z,95025.13
2022-10-03T22:54:19.619Z,95037.38
2022-10-03T22:56:51.798Z,95020.72
2022-10-03T22:59:25.320Z,95028.06
2022-10-03T23:01:54.427Z,95032.72
2022-10-03T23:04:32.601Z,95029.63
2022-10-03T23:07:15.589Z,95020.25
2022-10-03T23:09:56.976Z,95023.13
2022-10-03T23:12:29.682Z,95012.75
2022-10-03T23:15:00.352Z,95014.28
2022-10-03T23:17:32.824Z,95010.38
2022-10-03T23:20:02.310Z,95009.59
2022-10-03T23:22:31.383Z,95007.53
2022-10-03T23:25:16.814Z,95015.28
2022-10-03T23:27:50.765Z,95009.56
2022-10-03T23:30:17.134Z,95005.63
2022-10-03T23:32:46.498Z,95009.22
2022-10-03T23:35:17.471Z,95012.34
2022-10-03T23:37:48.921Z,95011.56
2022-10-03T23:40:20.621Z,95006.59
2022-10-03T23:42:55.641Z,95006.34
2022-10-03T23:45:24.443Z,95006.81
2022-10-03T23:48:02.365Z,95004.72
2022-10-03T23:50:44.039Z,95010.13
2022-10-03T23:53:35.042Z,95006.78
2022-10-03T23:56:04.556Z,94995.84
2022-10-03T23:58:36.646Z,95008.59
